Terminal Aerodrome Forecast
Issued by NWS

Home | Current Version | Previous Version | Text Only | Print | Product List | Glossary On
Versions: 1 2 3 4 5 6 7 8 9 10 11 12 13 14
000
FTUS44 KMOB 251140
TAFBFM
TAF
KBFM 251140Z 2512/2612 36006KT P6SM SCT040 BKN150 BKN200
     FM251800 36006KT P6SM VCTS SCT040CB BKN050
      TEMPO 2520/2524 P6SM -TSRA BKN040CB
     FM260000 01005KT P6SM BKN100 OVC250=

USA.gov is the U.S. government's official web portal to all federal, state and local government web resources and services.